sensor_id;sensor_type;location;lat;lon;timestamp;P1;durP1;ratioP1;P2;durP2;ratioP2
67028;SDS011;53934;52.142;11.738;2022-11-21T00:02:01;21.58;;;11.27;;
67028;SDS011;53934;52.142;11.738;2022-11-21T00:04:28;23.80;;;10.77;;
67028;SDS011;53934;52.142;11.738;2022-11-21T00:06:55;24.73;;;12.13;;
67028;SDS011;53934;52.142;11.738;2022-11-21T00:09:22;21.95;;;11.13;;
67028;SDS011;53934;52.142;11.738;2022-11-21T00:11:49;19.95;;;11.05;;
67028;SDS011;53934;52.142;11.738;2022-11-21T00:14:16;22.85;;;11.40;;
67028;SDS011;53934;52.142;11.738;2022-11-21T00:16:45;23.20;;;11.43;;
67028;SDS011;53934;52.142;11.738;2022-11-21T00:19:11;23.38;;;11.48;;
67028;SDS011;53934;52.142;11.738;2022-11-21T00:21:38;23.20;;;11.00;;
67028;SDS011;53934;52.142;11.738;2022-11-21T00:24:04;21.17;;;10.63;;
67028;SDS011;53934;52.142;11.738;2022-11-21T00:26:31;22.17;;;11.40;;
67028;SDS011;53934;52.142;11.738;2022-11-21T00:28:58;25.45;;;12.25;;
67028;SDS011;53934;52.142;11.738;2022-11-21T00:31:24;23.30;;;11.65;;
67028;SDS011;53934;52.142;11.738;2022-11-21T00:33:52;29.70;;;13.20;;
67028;SDS011;53934;52.142;11.738;2022-11-21T00:36:18;25.40;;;12.48;;
67028;SDS011;53934;52.142;11.738;2022-11-21T00:38:45;28.77;;;13.40;;
67028;SDS011;53934;52.142;11.738;2022-11-21T00:41:11;24.67;;;11.27;;
67028;SDS011;53934;52.142;11.738;2022-11-21T00:43:38;26.80;;;11.93;;
67028;SDS011;53934;52.142;11.738;2022-11-21T00:46:04;26.02;;;12.05;;
67028;SDS011;53934;52.142;11.738;2022-11-21T00:48:30;24.65;;;11.10;;
67028;SDS011;53934;52.142;11.738;2022-11-21T00:50:59;25.77;;;12.60;;
67028;SDS011;53934;52.142;11.738;2022-11-21T00:53:25;25.70;;;12.55;;
67028;SDS011;53934;52.142;11.738;2022-11-21T00:55:52;26.52;;;12.43;;
67028;SDS011;53934;52.142;11.738;2022-11-21T00:58:18;22.13;;;11.45;;
67028;SDS011;53934;52.142;11.738;2022-11-21T01:00:45;21.52;;;10.95;;
67028;SDS011;53934;52.142;11.738;2022-11-21T01:03:11;24.73;;;11.50;;
67028;SDS011;53934;52.142;11.738;2022-11-21T01:05:37;21.67;;;10.93;;
67028;SDS011;53934;52.142;11.738;2022-11-21T01:08:05;24.27;;;12.27;;
67028;SDS011;53934;52.142;11.738;2022-11-21T01:10:32;23.48;;;12.13;;
67028;SDS011;53934;52.142;11.738;2022-11-21T01:12:59;25.25;;;11.98;;
67028;SDS011;53934;52.142;11.738;2022-11-21T01:15:26;23.17;;;11.13;;
67028;SDS011;53934;52.142;11.738;2022-11-21T01:17:52;26.85;;;12.52;;
67028;SDS011;53934;52.142;11.738;2022-11-21T01:20:19;25.85;;;12.48;;
67028;SDS011;53934;52.142;11.738;2022-11-21T01:22:45;22.73;;;10.60;;
67028;SDS011;53934;52.142;11.738;2022-11-21T01:25:13;23.25;;;11.85;;
67028;SDS011;53934;52.142;11.738;2022-11-21T01:27:39;23.85;;;12.00;;
67028;SDS011;53934;52.142;11.738;2022-11-21T01:30:06;28.17;;;11.77;;
67028;SDS011;53934;52.142;11.738;2022-11-21T01:32:34;22.05;;;10.68;;
67028;SDS011;53934;52.142;11.738;2022-11-21T01:35:00;25.13;;;12.00;;
67028;SDS011;53934;52.142;11.738;2022-11-21T01:37:27;23.90;;;10.98;;
67028;SDS011;53934;52.142;11.738;2022-11-21T01:39:53;23.90;;;12.00;;
67028;SDS011;53934;52.142;11.738;2022-11-21T01:42:21;28.88;;;12.68;;
67028;SDS011;53934;52.142;11.738;2022-11-21T01:44:48;24.75;;;11.43;;
67028;SDS011;53934;52.142;11.738;2022-11-21T01:47:17;22.77;;;11.20;;
67028;SDS011;53934;52.142;11.738;2022-11-21T01:49:45;24.38;;;11.93;;
67028;SDS011;53934;52.142;11.738;2022-11-21T01:52:13;22.77;;;11.32;;
67028;SDS011;53934;52.142;11.738;2022-11-21T01:54:43;23.38;;;11.50;;
67028;SDS011;53934;52.142;11.738;2022-11-21T01:57:17;22.40;;;11.57;;
67028;SDS011;53934;52.142;11.738;2022-11-21T01:59:49;28.95;;;12.40;;
67028;SDS011;53934;52.142;11.738;2022-11-21T02:02:22;23.20;;;12.25;;
67028;SDS011;53934;52.142;11.738;2022-11-21T02:04:50;24.83;;;12.30;;
67028;SDS011;53934;52.142;11.738;2022-11-21T02:07:18;22.23;;;12.02;;
67028;SDS011;53934;52.142;11.738;2022-11-21T02:09:47;22.73;;;11.35;;
67028;SDS011;53934;52.142;11.738;2022-11-21T02:12:17;24.13;;;12.80;;
67028;SDS011;53934;52.142;11.738;2022-11-21T02:14:49;20.87;;;11.07;;
67028;SDS011;53934;52.142;11.738;2022-11-21T02:17:17;37.08;;;13.13;;
67028;SDS011;53934;52.142;11.738;2022-11-21T02:19:46;21.20;;;11.65;;
67028;SDS011;53934;52.142;11.738;2022-11-21T02:22:19;27.40;;;12.38;;
67028;SDS011;53934;52.142;11.738;2022-11-21T02:25:04;25.95;;;12.13;;
67028;SDS011;53934;52.142;11.738;2022-11-21T02:27:31;25.15;;;11.80;;
67028;SDS011;53934;52.142;11.738;2022-11-21T02:29:58;21.92;;;11.93;;
67028;SDS011;53934;52.142;11.738;2022-11-21T02:32:30;20.20;;;11.80;;
67028;SDS011;53934;52.142;11.738;2022-11-21T02:34:58;27.30;;;12.43;;
67028;SDS011;53934;52.142;11.738;2022-11-21T02:37:24;24.30;;;12.38;;
67028;SDS011;53934;52.142;11.738;2022-11-21T02:39:51;25.05;;;12.00;;
67028;SDS011;53934;52.142;11.738;2022-11-21T02:42:20;24.35;;;11.50;;
67028;SDS011;53934;52.142;11.738;2022-11-21T02:44:52;19.65;;;11.38;;
67028;SDS011;53934;52.142;11.738;2022-11-21T02:47:25;20.35;;;11.38;;
67028;SDS011;53934;52.142;11.738;2022-11-21T02:49:55;27.05;;;11.88;;
67028;SDS011;53934;52.142;11.738;2022-11-21T02:52:25;26.40;;;12.48;;
67028;SDS011;53934;52.142;11.738;2022-11-21T02:54:52;25.33;;;12.43;;
67028;SDS011;53934;52.142;11.738;2022-11-21T02:57:20;23.13;;;11.65;;
67028;SDS011;53934;52.142;11.738;2022-11-21T02:59:46;31.38;;;12.95;;
67028;SDS011;53934;52.142;11.738;2022-11-21T03:02:12;21.50;;;11.48;;
67028;SDS011;53934;52.142;11.738;2022-11-21T03:04:39;22.85;;;11.75;;
67028;SDS011;53934;52.142;11.738;2022-11-21T03:07:05;25.00;;;12.27;;
67028;SDS011;53934;52.142;11.738;2022-11-21T03:09:32;23.52;;;11.80;;
67028;SDS011;53934;52.142;11.738;2022-11-21T03:11:58;24.98;;;11.88;;
67028;SDS011;53934;52.142;11.738;2022-11-21T03:14:26;22.88;;;11.00;;
67028;SDS011;53934;52.142;11.738;2022-11-21T03:16:52;28.23;;;13.10;;
67028;SDS011;53934;52.142;11.738;2022-11-21T03:19:19;28.55;;;12.20;;
67028;SDS011;53934;52.142;11.738;2022-11-21T03:21:45;24.02;;;11.60;;
67028;SDS011;53934;52.142;11.738;2022-11-21T03:24:12;25.77;;;12.60;;
67028;SDS011;53934;52.142;11.738;2022-11-21T03:26:38;25.00;;;11.73;;
67028;SDS011;53934;52.142;11.738;2022-11-21T03:29:04;29.67;;;12.48;;
67028;SDS011;53934;52.142;11.738;2022-11-21T03:31:32;26.13;;;11.57;;
67028;SDS011;53934;52.142;11.738;2022-11-21T03:33:59;22.83;;;12.30;;
67028;SDS011;53934;52.142;11.738;2022-11-21T03:36:25;24.73;;;13.23;;
67028;SDS011;53934;52.142;11.738;2022-11-21T03:38:53;26.48;;;12.27;;
67028;SDS011;53934;52.142;11.738;2022-11-21T03:41:20;25.25;;;12.10;;
67028;SDS011;53934;52.142;11.738;2022-11-21T03:43:56;25.48;;;12.40;;
67028;SDS011;53934;52.142;11.738;2022-11-21T03:46:23;22.52;;;10.75;;
67028;SDS011;53934;52.142;11.738;2022-11-21T03:48:51;23.90;;;12.00;;
67028;SDS011;53934;52.142;11.738;2022-11-21T03:51:17;21.85;;;11.73;;
67028;SDS011;53934;52.142;11.738;2022-11-21T03:53:44;25.02;;;12.20;;
67028;SDS011;53934;52.142;11.738;2022-11-21T03:56:11;30.30;;;12.48;;
67028;SDS011;53934;52.142;11.738;2022-11-21T03:58:37;29.05;;;12.73;;
67028;SDS011;53934;52.142;11.738;2022-11-21T04:01:04;31.25;;;12.63;;
67028;SDS011;53934;52.142;11.738;2022-11-21T04:03:31;24.50;;;12.00;;
67028;SDS011;53934;52.142;11.738;2022-11-21T04:05:59;26.13;;;13.15;;
67028;SDS011;53934;52.142;11.738;2022-11-21T04:08:26;23.67;;;12.52;;
67028;SDS011;53934;52.142;11.738;2022-11-21T04:10:53;28.52;;;12.65;;
67028;SDS011;53934;52.142;11.738;2022-11-21T04:13:20;23.25;;;12.13;;
67028;SDS011;53934;52.142;11.738;2022-11-21T04:15:46;24.48;;;11.60;;
67028;SDS011;53934;52.142;11.738;2022-11-21T04:18:13;25.27;;;13.23;;
67028;SDS011;53934;52.142;11.738;2022-11-21T04:20:39;27.63;;;12.35;;
67028;SDS011;53934;52.142;11.738;2022-11-21T04:23:07;26.17;;;12.63;;
67028;SDS011;53934;52.142;11.738;2022-11-21T04:25:33;23.00;;;12.45;;
67028;SDS011;53934;52.142;11.738;2022-11-21T04:28:01;25.05;;;12.25;;
67028;SDS011;53934;52.142;11.738;2022-11-21T04:30:29;25.92;;;11.75;;
67028;SDS011;53934;52.142;11.738;2022-11-21T04:32:57;21.90;;;11.30;;
67028;SDS011;53934;52.142;11.738;2022-11-21T04:35:23;22.20;;;11.70;;
67028;SDS011;53934;52.142;11.738;2022-11-21T04:37:51;23.98;;;12.05;;
67028;SDS011;53934;52.142;11.738;2022-11-21T04:40:18;25.52;;;12.45;;
67028;SDS011;53934;52.142;11.738;2022-11-21T04:42:46;24.55;;;12.50;;
67028;SDS011;53934;52.142;11.738;2022-11-21T04:45:13;24.90;;;12.50;;
67028;SDS011;53934;52.142;11.738;2022-11-21T04:47:41;27.70;;;12.40;;
67028;SDS011;53934;52.142;11.738;2022-11-21T04:50:10;28.35;;;12.60;;
67028;SDS011;53934;52.142;11.738;2022-11-21T04:52:38;24.50;;;11.82;;
67028;SDS011;53934;52.142;11.738;2022-11-21T04:55:05;27.42;;;12.05;;
67028;SDS011;53934;52.142;11.738;2022-11-21T04:57:34;24.05;;;12.05;;
67028;SDS011;53934;52.142;11.738;2022-11-21T05:00:00;23.23;;;11.50;;
67028;SDS011;53934;52.142;11.738;2022-11-21T05:02:27;26.30;;;12.48;;
67028;SDS011;53934;52.142;11.738;2022-11-21T05:04:53;29.15;;;12.93;;
67028;SDS011;53934;52.142;11.738;2022-11-21T05:07:19;27.08;;;12.25;;
67028;SDS011;53934;52.142;11.738;2022-11-21T05:09:46;26.00;;;13.00;;
67028;SDS011;53934;52.142;11.738;2022-11-21T05:12:12;23.08;;;12.23;;
67028;SDS011;53934;52.142;11.738;2022-11-21T05:14:58;21.90;;;11.73;;
67028;SDS011;53934;52.142;11.738;2022-11-21T05:17:26;21.48;;;12.75;;
67028;SDS011;53934;52.142;11.738;2022-11-21T05:19:53;28.30;;;13.10;;
67028;SDS011;53934;52.142;11.738;2022-11-21T05:22:20;25.25;;;12.52;;
67028;SDS011;53934;52.142;11.738;2022-11-21T05:24:46;22.05;;;11.68;;
67028;SDS011;53934;52.142;11.738;2022-11-21T05:27:13;23.85;;;12.50;;
67028;SDS011;53934;52.142;11.738;2022-11-21T05:29:39;25.80;;;12.35;;
67028;SDS011;53934;52.142;11.738;2022-11-21T05:32:07;23.13;;;12.55;;
67028;SDS011;53934;52.142;11.738;2022-11-21T05:34:33;21.08;;;12.30;;
67028;SDS011;53934;52.142;11.738;2022-11-21T05:37:00;23.98;;;12.82;;
67028;SDS011;53934;52.142;11.738;2022-11-21T05:39:26;22.45;;;11.20;;
67028;SDS011;53934;52.142;11.738;2022-11-21T05:41:53;23.70;;;12.15;;
67028;SDS011;53934;52.142;11.738;2022-11-21T05:44:20;28.40;;;12.52;;
67028;SDS011;53934;52.142;11.738;2022-11-21T05:46:45;31.30;;;13.23;;
67028;SDS011;53934;52.142;11.738;2022-11-21T05:49:13;23.08;;;12.35;;
67028;SDS011;53934;52.142;11.738;2022-11-21T05:51:39;25.08;;;12.82;;
67028;SDS011;53934;52.142;11.738;2022-11-21T05:54:06;29.08;;;14.38;;
67028;SDS011;53934;52.142;11.738;2022-11-21T05:56:32;24.55;;;12.50;;
67028;SDS011;53934;52.142;11.738;2022-11-21T05:58:59;26.50;;;12.02;;
67028;SDS011;53934;52.142;11.738;2022-11-21T06:01:25;22.85;;;12.32;;
67028;SDS011;53934;52.142;11.738;2022-11-21T06:04:09;28.73;;;13.55;;
67028;SDS011;53934;52.142;11.738;2022-11-21T06:06:37;21.70;;;11.18;;
67028;SDS011;53934;52.142;11.738;2022-11-21T06:09:03;27.10;;;13.23;;
67028;SDS011;53934;52.142;11.738;2022-11-21T06:11:30;25.60;;;13.25;;
67028;SDS011;53934;52.142;11.738;2022-11-21T06:13:56;26.70;;;12.98;;
67028;SDS011;53934;52.142;11.738;2022-11-21T06:16:23;22.92;;;12.57;;
67028;SDS011;53934;52.142;11.738;2022-11-21T06:18:50;26.15;;;12.48;;
67028;SDS011;53934;52.142;11.738;2022-11-21T06:21:18;22.40;;;11.70;;
67028;SDS011;53934;52.142;11.738;2022-11-21T06:23:49;26.45;;;11.98;;
67028;SDS011;53934;52.142;11.738;2022-11-21T06:26:17;26.55;;;11.60;;
67028;SDS011;53934;52.142;11.738;2022-11-21T06:28:46;21.25;;;11.75;;
67028;SDS011;53934;52.142;11.738;2022-11-21T06:31:14;24.23;;;12.23;;
67028;SDS011;53934;52.142;11.738;2022-11-21T06:33:42;20.25;;;11.88;;
67028;SDS011;53934;52.142;11.738;2022-11-21T06:36:11;22.65;;;12.27;;
67028;SDS011;53934;52.142;11.738;2022-11-21T06:38:38;24.20;;;12.77;;
67028;SDS011;53934;52.142;11.738;2022-11-21T06:41:07;20.70;;;11.35;;
67028;SDS011;53934;52.142;11.738;2022-11-21T06:43:36;23.23;;;11.40;;
67028;SDS011;53934;52.142;11.738;2022-11-21T06:46:03;22.27;;;10.93;;
67028;SDS011;53934;52.142;11.738;2022-11-21T06:48:29;22.98;;;11.05;;
67028;SDS011;53934;52.142;11.738;2022-11-21T06:50:56;27.00;;;12.18;;
67028;SDS011;53934;52.142;11.738;2022-11-21T06:53:23;25.83;;;11.93;;
67028;SDS011;53934;52.142;11.738;2022-11-21T06:55:49;24.00;;;11.90;;
67028;SDS011;53934;52.142;11.738;2022-11-21T06:58:17;25.00;;;11.50;;
67028;SDS011;53934;52.142;11.738;2022-11-21T07:00:44;25.38;;;11.48;;
67028;SDS011;53934;52.142;11.738;2022-11-21T07:03:12;27.38;;;12.23;;
67028;SDS011;53934;52.142;11.738;2022-11-21T07:05:39;23.90;;;11.35;;
67028;SDS011;53934;52.142;11.738;2022-11-21T07:08:05;27.33;;;11.77;;
67028;SDS011;53934;52.142;11.738;2022-11-21T07:10:32;26.40;;;12.43;;
67028;SDS011;53934;52.142;11.738;2022-11-21T07:12:58;23.10;;;11.27;;
67028;SDS011;53934;52.142;11.738;2022-11-21T07:15:44;22.92;;;10.88;;
67028;SDS011;53934;52.142;11.738;2022-11-21T07:18:11;28.25;;;12.02;;
67028;SDS011;53934;52.142;11.738;2022-11-21T07:20:38;26.38;;;12.15;;
67028;SDS011;53934;52.142;11.738;2022-11-21T07:23:06;24.27;;;12.38;;
67028;SDS011;53934;52.142;11.738;2022-11-21T07:25:32;27.83;;;12.05;;
67028;SDS011;53934;52.142;11.738;2022-11-21T07:27:59;29.63;;;12.98;;
67028;SDS011;53934;52.142;11.738;2022-11-21T07:30:26;29.30;;;13.82;;
67028;SDS011;53934;52.142;11.738;2022-11-21T07:32:55;31.77;;;12.93;;
67028;SDS011;53934;52.142;11.738;2022-11-21T07:35:21;27.77;;;13.52;;
67028;SDS011;53934;52.142;11.738;2022-11-21T07:37:48;27.45;;;12.90;;
67028;SDS011;53934;52.142;11.738;2022-11-21T07:40:15;27.58;;;13.73;;
67028;SDS011;53934;52.142;11.738;2022-11-21T07:42:41;25.58;;;12.30;;
67028;SDS011;53934;52.142;11.738;2022-11-21T07:45:08;24.65;;;12.70;;
67028;SDS011;53934;52.142;11.738;2022-11-21T07:47:36;25.35;;;12.50;;
67028;SDS011;53934;52.142;11.738;2022-11-21T07:50:04;24.50;;;12.07;;
67028;SDS011;53934;52.142;11.738;2022-11-21T07:52:31;27.95;;;14.18;;
67028;SDS011;53934;52.142;11.738;2022-11-21T07:54:58;22.85;;;12.65;;
67028;SDS011;53934;52.142;11.738;2022-11-21T07:57:26;25.13;;;12.80;;
67028;SDS011;53934;52.142;11.738;2022-11-21T07:59:53;27.65;;;12.90;;
67028;SDS011;53934;52.142;11.738;2022-11-21T08:02:21;27.38;;;13.65;;
67028;SDS011;53934;52.142;11.738;2022-11-21T08:04:49;27.58;;;12.30;;
67028;SDS011;53934;52.142;11.738;2022-11-21T08:07:18;27.15;;;13.43;;
67028;SDS011;53934;52.142;11.738;2022-11-21T08:09:45;27.45;;;13.10;;
67028;SDS011;53934;52.142;11.738;2022-11-21T08:12:12;27.40;;;13.63;;
67028;SDS011;53934;52.142;11.738;2022-11-21T08:14:39;26.33;;;13.40;;
67028;SDS011;53934;52.142;11.738;2022-11-21T08:17:06;30.45;;;13.93;;
67028;SDS011;53934;52.142;11.738;2022-11-21T08:19:33;25.58;;;12.10;;
67028;SDS011;53934;52.142;11.738;2022-11-21T08:22:00;25.58;;;11.57;;
67028;SDS011;53934;52.142;11.738;2022-11-21T08:24:28;25.38;;;11.23;;
67028;SDS011;53934;52.142;11.738;2022-11-21T08:26:54;20.85;;;12.20;;
67028;SDS011;53934;52.142;11.738;2022-11-21T08:29:20;27.45;;;12.60;;
67028;SDS011;53934;52.142;11.738;2022-11-21T08:31:47;22.48;;;11.77;;
67028;SDS011;53934;52.142;11.738;2022-11-21T08:34:13;22.20;;;10.90;;
67028;SDS011;53934;52.142;11.738;2022-11-21T08:36:40;19.60;;;9.90;;
67028;SDS011;53934;52.142;11.738;2022-11-21T08:39:06;21.45;;;11.80;;
67028;SDS011;53934;52.142;11.738;2022-11-21T08:41:34;19.08;;;10.88;;
67028;SDS011;53934;52.142;11.738;2022-11-21T08:44:18;17.63;;;9.73;;
67028;SDS011;53934;52.142;11.738;2022-11-21T08:46:44;15.07;;;9.18;;
67028;SDS011;53934;52.142;11.738;2022-11-21T08:49:11;16.75;;;9.63;;
67028;SDS011;53934;52.142;11.738;2022-11-21T08:51:37;17.42;;;9.82;;
67028;SDS011;53934;52.142;11.738;2022-11-21T08:54:04;13.85;;;8.55;;
67028;SDS011;53934;52.142;11.738;2022-11-21T08:56:30;20.42;;;9.88;;
67028;SDS011;53934;52.142;11.738;2022-11-21T08:58:58;18.02;;;9.85;;
67028;SDS011;53934;52.142;11.738;2022-11-21T09:01:24;14.43;;;8.43;;
67028;SDS011;53934;52.142;11.738;2022-11-21T09:03:51;13.30;;;7.97;;
67028;SDS011;53934;52.142;11.738;2022-11-21T09:06:17;11.85;;;7.10;;
67028;SDS011;53934;52.142;11.738;2022-11-21T09:08:44;11.10;;;7.78;;
67028;SDS011;53934;52.142;11.738;2022-11-21T09:11:10;12.02;;;7.57;;
67028;SDS011;53934;52.142;11.738;2022-11-21T09:13:37;13.73;;;7.38;;
67028;SDS011;53934;52.142;11.738;2022-11-21T09:16:05;12.20;;;6.97;;
67028;SDS011;53934;52.142;11.738;2022-11-21T09:18:50;10.60;;;6.93;;
67028;SDS011;53934;52.142;11.738;2022-11-21T09:21:17;11.52;;;7.60;;
67028;SDS011;53934;52.142;11.738;2022-11-21T09:23:45;10.38;;;6.85;;
67028;SDS011;53934;52.142;11.738;2022-11-21T09:26:11;12.65;;;7.55;;
67028;SDS011;53934;52.142;11.738;2022-11-21T09:28:39;13.20;;;6.45;;
67028;SDS011;53934;52.142;11.738;2022-11-21T09:31:07;9.80;;;7.03;;
67028;SDS011;53934;52.142;11.738;2022-11-21T09:33:34;12.60;;;7.75;;
67028;SDS011;53934;52.142;11.738;2022-11-21T09:36:00;10.90;;;8.25;;
67028;SDS011;53934;52.142;11.738;2022-11-21T09:38:27;11.18;;;7.40;;
67028;SDS011;53934;52.142;11.738;2022-11-21T09:40:55;12.48;;;7.50;;
67028;SDS011;53934;52.142;11.738;2022-11-21T09:43:49;17.63;;;7.78;;
67028;SDS011;53934;52.142;11.738;2022-11-21T09:46:29;12.50;;;7.43;;
67028;SDS011;53934;52.142;11.738;2022-11-21T09:49:03;12.25;;;7.45;;
67028;SDS011;53934;52.142;11.738;2022-11-21T09:51:32;11.05;;;7.72;;
67028;SDS011;53934;52.142;11.738;2022-11-21T09:54:02;11.48;;;7.53;;
67028;SDS011;53934;52.142;11.738;2022-11-21T09:56:37;11.05;;;6.93;;
67028;SDS011;53934;52.142;11.738;2022-11-21T09:59:11;12.48;;;7.57;;
67028;SDS011;53934;52.142;11.738;2022-11-21T10:01:46;10.23;;;7.75;;
67028;SDS011;53934;52.142;11.738;2022-11-21T10:04:12;15.52;;;8.07;;
67028;SDS011;53934;52.142;11.738;2022-11-21T10:06:40;13.82;;;7.55;;
67028;SDS011;53934;52.142;11.738;2022-11-21T10:09:13;13.15;;;8.45;;
67028;SDS011;53934;52.142;11.738;2022-11-21T10:11:50;14.23;;;8.43;;
67028;SDS011;53934;52.142;11.738;2022-11-21T10:14:46;13.63;;;7.70;;
67028;SDS011;53934;52.142;11.738;2022-11-21T10:17:23;17.00;;;8.23;;
67028;SDS011;53934;52.142;11.738;2022-11-21T10:20:00;12.73;;;7.13;;
67028;SDS011;53934;52.142;11.738;2022-11-21T10:22:41;13.85;;;7.47;;
67028;SDS011;53934;52.142;11.738;2022-11-21T10:25:22;15.65;;;7.97;;
67028;SDS011;53934;52.142;11.738;2022-11-21T10:27:50;15.73;;;9.20;;
67028;SDS011;53934;52.142;11.738;2022-11-21T10:30:20;15.07;;;8.27;;
67028;SDS011;53934;52.142;11.738;2022-11-21T10:32:49;12.85;;;7.68;;
67028;SDS011;53934;52.142;11.738;2022-11-21T10:35:19;21.83;;;8.83;;
67028;SDS011;53934;52.142;11.738;2022-11-21T10:37:48;15.65;;;8.18;;
67028;SDS011;53934;52.142;11.738;2022-11-21T10:40:28;18.75;;;7.95;;
67028;SDS011;53934;52.142;11.738;2022-11-21T10:42:59;17.25;;;8.88;;
67028;SDS011;53934;52.142;11.738;2022-11-21T10:45:50;13.65;;;7.88;;
67028;SDS011;53934;52.142;11.738;2022-11-21T10:48:18;18.77;;;8.63;;
67028;SDS011;53934;52.142;11.738;2022-11-21T10:51:02;18.58;;;8.50;;
67028;SDS011;53934;52.142;11.738;2022-11-21T10:53:37;14.85;;;8.60;;
67028;SDS011;53934;52.142;11.738;2022-11-21T10:56:22;13.90;;;8.13;;
67028;SDS011;53934;52.142;11.738;2022-11-21T10:58:51;19.73;;;9.45;;
67028;SDS011;53934;52.142;11.738;2022-11-21T11:01:24;15.40;;;8.00;;
67028;SDS011;53934;52.142;11.738;2022-11-21T11:04:06;13.30;;;7.63;;
67028;SDS011;53934;52.142;11.738;2022-11-21T11:06:42;14.55;;;8.00;;
67028;SDS011;53934;52.142;11.738;2022-11-21T11:09:20;16.20;;;8.43;;
67028;SDS011;53934;52.142;11.738;2022-11-21T11:11:52;14.73;;;8.00;;
67028;SDS011;53934;52.142;11.738;2022-11-21T11:14:26;16.48;;;8.68;;
67028;SDS011;53934;52.142;11.738;2022-11-21T11:16:56;14.18;;;7.35;;
67028;SDS011;53934;52.142;11.738;2022-11-21T11:19:25;12.73;;;6.55;;
67028;SDS011;53934;52.142;11.738;2022-11-21T11:21:53;13.65;;;7.13;;
67028;SDS011;53934;52.142;11.738;2022-11-21T11:24:22;14.25;;;7.57;;
67028;SDS011;53934;52.142;11.738;2022-11-21T11:26:51;15.05;;;7.72;;
67028;SDS011;53934;52.142;11.738;2022-11-21T11:29:22;17.23;;;8.13;;
67028;SDS011;53934;52.142;11.738;2022-11-21T11:31:51;18.08;;;8.40;;
67028;SDS011;53934;52.142;11.738;2022-11-21T11:34:20;16.33;;;8.68;;
67028;SDS011;53934;52.142;11.738;2022-11-21T11:36:54;13.57;;;7.20;;
67028;SDS011;53934;52.142;11.738;2022-11-21T11:39:35;18.27;;;7.07;;
67028;SDS011;53934;52.142;11.738;2022-11-21T11:42:09;16.15;;;8.38;;
67028;SDS011;53934;52.142;11.738;2022-11-21T11:45:15;14.95;;;7.57;;
67028;SDS011;53934;52.142;11.738;2022-11-21T11:48:12;15.23;;;7.63;;
67028;SDS011;53934;52.142;11.738;2022-11-21T11:50:42;16.92;;;7.50;;
67028;SDS011;53934;52.142;11.738;2022-11-21T11:53:14;14.70;;;8.38;;
67028;SDS011;53934;52.142;11.738;2022-11-21T11:55:44;18.80;;;8.80;;
67028;SDS011;53934;52.142;11.738;2022-11-21T11:58:18;29.45;;;9.00;;
67028;SDS011;53934;52.142;11.738;2022-11-21T12:00:51;16.45;;;8.95;;
67028;SDS011;53934;52.142;11.738;2022-11-21T12:03:25;15.77;;;8.13;;
67028;SDS011;53934;52.142;11.738;2022-11-21T12:06:02;16.60;;;7.43;;
67028;SDS011;53934;52.142;11.738;2022-11-21T12:08:35;15.13;;;8.40;;
67028;SDS011;53934;52.142;11.738;2022-11-21T12:11:12;20.30;;;9.23;;
67028;SDS011;53934;52.142;11.738;2022-11-21T12:14:08;13.65;;;7.03;;
67028;SDS011;53934;52.142;11.738;2022-11-21T12:17:02;11.50;;;6.47;;
67028;SDS011;53934;52.142;11.738;2022-11-21T12:19:30;13.70;;;7.65;;
67028;SDS011;53934;52.142;11.738;2022-11-21T12:22:00;15.48;;;7.18;;
67028;SDS011;53934;52.142;11.738;2022-11-21T12:24:31;13.90;;;6.97;;
67028;SDS011;53934;52.142;11.738;2022-11-21T12:27:00;13.93;;;6.68;;
67028;SDS011;53934;52.142;11.738;2022-11-21T12:29:40;12.40;;;6.15;;
67028;SDS011;53934;52.142;11.738;2022-11-21T12:32:26;14.27;;;7.37;;
67028;SDS011;53934;52.142;11.738;2022-11-21T12:35:12;15.45;;;7.68;;
67028;SDS011;53934;52.142;11.738;2022-11-21T12:37:53;15.15;;;6.88;;
67028;SDS011;53934;52.142;11.738;2022-11-21T12:40:33;17.10;;;8.30;;
67028;SDS011;53934;52.142;11.738;2022-11-21T12:43:12;12.68;;;6.38;;
67028;SDS011;53934;52.142;11.738;2022-11-21T12:45:46;17.92;;;6.63;;
67028;SDS011;53934;52.142;11.738;2022-11-21T12:48:17;17.33;;;7.10;;
67028;SDS011;53934;52.142;11.738;2022-11-21T12:51:20;14.98;;;7.15;;
67028;SDS011;53934;52.142;11.738;2022-11-21T12:57:12;21.70;;;8.82;;
67028;SDS011;53934;52.142;11.738;2022-11-21T12:59:49;19.00;;;7.95;;
67028;SDS011;53934;52.142;11.738;2022-11-21T13:02:25;17.08;;;8.05;;
67028;SDS011;53934;52.142;11.738;2022-11-21T13:04:57;19.98;;;7.55;;
67028;SDS011;53934;52.142;11.738;2022-11-21T13:07:26;15.48;;;7.50;;
67028;SDS011;53934;52.142;11.738;2022-11-21T13:09:55;17.48;;;8.20;;
67028;SDS011;53934;52.142;11.738;2022-11-21T13:12:27;19.38;;;8.07;;
67028;SDS011;53934;52.142;11.738;2022-11-21T13:15:01;17.27;;;7.50;;
67028;SDS011;53934;52.142;11.738;2022-11-21T13:17:38;13.43;;;6.25;;
67028;SDS011;53934;52.142;11.738;2022-11-21T13:22:56;18.63;;;8.32;;
67028;SDS011;53934;52.142;11.738;2022-11-21T13:25:42;16.65;;;7.45;;
67028;SDS011;53934;52.142;11.738;2022-11-21T13:28:26;25.20;;;9.43;;
67028;SDS011;53934;52.142;11.738;2022-11-21T13:30:56;20.48;;;8.73;;
67028;SDS011;53934;52.142;11.738;2022-11-21T13:36:11;13.32;;;6.35;;
67028;SDS011;53934;52.142;11.738;2022-11-21T13:41:57;19.75;;;8.43;;
67028;SDS011;53934;52.142;11.738;2022-11-21T13:44:44;16.73;;;8.48;;
67028;SDS011;53934;52.142;11.738;2022-11-21T13:47:11;18.25;;;9.65;;
67028;SDS011;53934;52.142;11.738;2022-11-21T13:50:03;16.73;;;8.82;;
67028;SDS011;53934;52.142;11.738;2022-11-21T13:52:37;15.40;;;8.10;;
67028;SDS011;53934;52.142;11.738;2022-11-21T13:55:13;15.77;;;7.53;;
67028;SDS011;53934;52.142;11.738;2022-11-21T13:57:58;16.23;;;8.20;;
67028;SDS011;53934;52.142;11.738;2022-11-21T14:00:37;19.80;;;8.43;;
67028;SDS011;53934;52.142;11.738;2022-11-21T14:06:13;15.20;;;6.03;;
67028;SDS011;53934;52.142;11.738;2022-11-21T14:09:04;13.40;;;6.97;;
67028;SDS011;53934;52.142;11.738;2022-11-21T14:11:42;14.88;;;6.43;;
67028;SDS011;53934;52.142;11.738;2022-11-21T14:14:21;13.07;;;5.75;;
67028;SDS011;53934;52.142;11.738;2022-11-21T14:16:51;45.03;;;9.55;;
67028;SDS011;53934;52.142;11.738;2022-11-21T14:19:28;40.42;;;8.48;;
67028;SDS011;53934;52.142;11.738;2022-11-21T14:21:56;29.70;;;8.18;;
67028;SDS011;53934;52.142;11.738;2022-11-21T14:24:24;17.98;;;6.03;;
67028;SDS011;53934;52.142;11.738;2022-11-21T14:26:52;21.80;;;7.50;;
67028;SDS011;53934;52.142;11.738;2022-11-21T14:29:24;19.17;;;6.97;;
67028;SDS011;53934;52.142;11.738;2022-11-21T14:31:53;21.70;;;7.95;;
67028;SDS011;53934;52.142;11.738;2022-11-21T14:34:23;21.80;;;7.20;;
67028;SDS011;53934;52.142;11.738;2022-11-21T14:36:51;22.15;;;6.68;;
67028;SDS011;53934;52.142;11.738;2022-11-21T14:39:18;30.23;;;7.47;;
67028;SDS011;53934;52.142;11.738;2022-11-21T14:41:49;21.17;;;6.70;;
67028;SDS011;53934;52.142;11.738;2022-11-21T14:44:18;24.33;;;7.00;;
67028;SDS011;53934;52.142;11.738;2022-11-21T14:46:46;23.65;;;7.05;;